createdAt,value
2018-07-26T00:01:30.984Z,94.30
2018-07-26T00:04:00.057Z,95.00
2018-07-26T00:06:29.147Z,94.50
2018-07-26T00:08:58.218Z,95.60
2018-07-26T00:11:27.270Z,95.00
2018-07-26T00:16:25.052Z,96.00
2018-07-26T00:18:54.107Z,96.40
2018-07-26T00:21:23.159Z,96.20
2018-07-26T00:26:20.925Z,96.90
2018-07-26T00:28:49.992Z,96.60
2018-07-26T00:31:19.311Z,96.40
2018-07-26T00:33:48.384Z,96.90
2018-07-26T00:36:17.430Z,97.20
2018-07-26T00:41:15.183Z,96.90
2018-07-26T00:43:44.609Z,97.30
2018-07-26T00:46:13.654Z,97.10
2018-07-26T00:48:42.745Z,97.20
2018-07-26T00:51:11.785Z,97.20
2018-07-26T00:53:40.836Z,97.80
2018-07-26T00:56:09.905Z,98.80
2018-07-26T01:01:07.631Z,99.60
2018-07-26T01:03:36.670Z,99.70
2018-07-26T01:06:05.739Z,99.00
2018-07-26T01:08:34.784Z,99.90
2018-07-26T01:11:03.852Z,99.90
2018-07-26T01:16:01.649Z,98.90
2018-07-26T01:20:59.371Z,99.70
2018-07-26T01:23:28.420Z,99.90
2018-07-26T01:25:57.479Z,99.90
2018-07-26T01:28:26.540Z,99.90
2018-07-26T01:30:55.612Z,99.90
2018-07-26T01:33:24.679Z,99.90
2018-07-26T01:35:53.759Z,99.90
2018-07-26T01:38:22.819Z,99.90
2018-07-26T01:40:51.882Z,99.90
2018-07-26T01:46:22.708Z,99.90
2018-07-26T01:48:51.891Z,99.90
2018-07-26T01:51:20.967Z,99.90
2018-07-26T01:53:50.008Z,99.90
2018-07-26T01:56:19.088Z,99.90
2018-07-26T01:58:48.144Z,99.90
2018-07-26T02:01:17.559Z,99.90
2018-07-26T02:03:46.611Z,99.90
2018-07-26T02:06:15.700Z,99.90
2018-07-26T02:08:44.760Z,99.90
2018-07-26T02:11:13.834Z,99.90
2018-07-26T02:16:11.606Z,99.90
2018-07-26T02:18:40.651Z,99.90
2018-07-26T02:21:09.736Z,99.90
2018-07-26T02:23:38.783Z,99.90
2018-07-26T02:26:07.832Z,99.90
2018-07-26T02:28:36.896Z,99.90
2018-07-26T02:33:34.685Z,99.90
2018-07-26T02:43:29.816Z,99.90
2018-07-26T02:45:58.872Z,99.90
2018-07-26T02:48:27.931Z,99.90
2018-07-26T02:50:56.983Z,99.90
2018-07-26T02:53:26.068Z,99.90
2018-07-26T02:55:55.121Z,99.90
2018-07-26T02:58:24.204Z,99.90
2018-07-26T03:00:53.247Z,99.90
2018-07-26T03:03:22.324Z,99.90
2018-07-26T03:05:51.380Z,99.90
2018-07-26T03:08:20.467Z,99.90
2018-07-26T03:10:49.518Z,99.90
2018-07-26T03:13:18.576Z,99.90
2018-07-26T03:15:47.673Z,99.90
2018-07-26T03:18:16.747Z,99.90
2018-07-26T03:20:45.826Z,99.90
2018-07-26T03:23:14.889Z,99.90
2018-07-26T03:25:44.224Z,99.90
2018-07-26T03:28:13.283Z,99.90
2018-07-26T03:30:42.355Z,99.90
2018-07-26T03:33:11.453Z,99.90
2018-07-26T03:38:10.144Z,99.90
2018-07-26T03:40:39.271Z,99.90
2018-07-26T03:43:08.323Z,99.90
2018-07-26T03:45:37.415Z,99.90
2018-07-26T03:48:06.576Z,99.90
2018-07-26T03:50:35.676Z,99.90
2018-07-26T03:53:04.731Z,99.90
2018-07-26T03:55:33.797Z,99.90
2018-07-26T03:58:02.859Z,99.90
2018-07-26T04:00:31.927Z,99.90
2018-07-26T04:05:29.760Z,99.90
2018-07-26T04:07:58.802Z,99.90
2018-07-26T04:12:56.595Z,99.90
2018-07-26T04:18:04.335Z,99.90
2018-07-26T04:20:33.843Z,99.90
2018-07-26T04:23:03.165Z,99.90
2018-07-26T04:25:32.499Z,99.90
2018-07-26T04:28:02.286Z,99.90
2018-07-26T04:30:31.336Z,99.90
2018-07-26T04:33:00.392Z,99.90
2018-07-26T04:35:29.427Z,99.90
2018-07-26T04:37:58.495Z,99.90
2018-07-26T04:40:27.535Z,99.90
2018-07-26T04:42:56.649Z,99.90
2018-07-26T04:45:25.662Z,99.90
2018-07-26T04:47:54.740Z,99.90
2018-07-26T04:50:23.775Z,99.90
2018-07-26T04:52:52.884Z,99.90
2018-07-26T04:55:21.908Z,99.90
2018-07-26T04:57:51.044Z,99.90
2018-07-26T05:00:20.255Z,99.90
2018-07-26T05:02:49.296Z,99.90
2018-07-26T05:05:18.364Z,99.90
2018-07-26T05:07:47.403Z,99.70
2018-07-26T05:10:16.564Z,99.40
2018-07-26T05:15:14.314Z,98.20
2018-07-26T05:17:43.366Z,97.80
2018-07-26T05:20:12.437Z,97.50
2018-07-26T05:25:10.184Z,97.00
2018-07-26T05:27:39.253Z,96.60
2018-07-26T05:30:08.339Z,96.20
2018-07-26T05:32:37.391Z,96.00
2018-07-26T05:35:06.470Z,95.30
2018-07-26T05:37:35.575Z,95.10
2018-07-26T05:40:05.267Z,94.70
2018-07-26T05:42:34.340Z,94.20
2018-07-26T05:45:03.442Z,94.00
2018-07-26T05:47:32.567Z,93.70
2018-07-26T05:50:01.675Z,93.40
2018-07-26T05:52:30.732Z,93.00
2018-07-26T05:54:59.804Z,93.30
2018-07-26T05:57:28.843Z,92.70
2018-07-26T05:59:57.892Z,92.20
2018-07-26T06:02:26.963Z,91.80
2018-07-26T06:04:56.041Z,91.20
2018-07-26T06:07:25.104Z,91.00
2018-07-26T06:09:54.148Z,90.60
2018-07-26T06:12:23.224Z,90.60
2018-07-26T06:14:52.279Z,90.40
2018-07-26T06:17:21.344Z,90.00
2018-07-26T06:22:19.074Z,90.00
2018-07-26T06:24:48.151Z,88.90
2018-07-26T06:27:17.219Z,88.30
2018-07-26T06:37:12.347Z,85.50
2018-07-26T06:39:41.397Z,85.90
2018-07-26T06:42:10.832Z,85.60
2018-07-26T06:44:39.880Z,84.10
2018-07-26T06:49:37.631Z,83.70
2018-07-26T06:52:07.039Z,81.00
2018-07-26T06:54:36.120Z,81.80
2018-07-26T06:57:05.184Z,80.90
2018-07-26T06:59:34.232Z,79.60
2018-07-26T07:02:03.303Z,79.70
2018-07-26T07:04:32.351Z,79.00
2018-07-26T07:11:58.768Z,77.40
2018-07-26T07:14:27.835Z,76.80
2018-07-26T07:16:56.902Z,77.40
2018-07-26T07:19:25.952Z,76.40
2018-07-26T07:21:55.016Z,74.70
2018-07-26T07:24:24.059Z,73.70
2018-07-26T07:26:53.836Z,73.60
2018-07-26T07:29:23.357Z,75.00
2018-07-26T07:31:52.395Z,73.70
2018-07-26T07:34:21.455Z,72.10
2018-07-26T07:36:50.507Z,72.40
2018-07-26T07:41:48.268Z,71.40
2018-07-26T07:44:17.327Z,72.00
2018-07-26T07:46:46.372Z,71.10
2018-07-26T07:54:12.788Z,68.40
2018-07-26T07:56:41.825Z,67.80
2018-07-26T07:59:10.880Z,68.80
2018-07-26T08:01:39.919Z,68.20
2018-07-26T08:04:08.980Z,66.50
2018-07-26T08:06:38.066Z,67.70
2018-07-26T08:09:09.116Z,65.80
2018-07-26T08:11:38.169Z,64.70
2018-07-26T08:14:07.926Z,64.20
2018-07-26T08:16:36.989Z,63.00
2018-07-26T08:19:06.336Z,62.00
2018-07-26T08:21:35.404Z,61.90
2018-07-26T08:24:04.491Z,59.60
2018-07-26T08:26:33.548Z,59.50
2018-07-26T08:29:02.610Z,59.10
2018-07-26T08:31:31.675Z,58.80
2018-07-26T08:34:00.756Z,55.20
2018-07-26T08:36:29.806Z,56.00
2018-07-26T08:38:58.874Z,55.90
2018-07-26T08:41:27.951Z,55.30
2018-07-26T08:43:57.016Z,55.30
2018-07-26T08:46:26.092Z,54.80
2018-07-26T08:51:23.836Z,54.30
2018-07-26T08:53:52.888Z,54.10
2018-07-26T08:56:21.967Z,54.10
2018-07-26T08:58:51.020Z,55.00
2018-07-26T09:01:20.099Z,54.50
2018-07-26T09:03:49.168Z,53.30
2018-07-26T09:06:18.250Z,51.00
2018-07-26T09:08:47.311Z,49.70
2018-07-26T09:11:16.383Z,47.50
2018-07-26T09:16:14.171Z,46.80
2018-07-26T09:18:43.219Z,46.30
2018-07-26T09:21:12.292Z,44.40
2018-07-26T09:23:41.356Z,43.60
2018-07-26T09:28:39.136Z,43.60
2018-07-26T09:31:08.211Z,42.10
2018-07-26T09:33:37.279Z,41.10
2018-07-26T09:36:06.358Z,42.90
2018-07-26T09:38:35.411Z,39.60
2018-07-26T09:43:33.200Z,38.50
2018-07-26T09:46:02.280Z,39.40
2018-07-26T09:48:31.327Z,38.30
2018-07-26T09:51:00.400Z,37.30
2018-07-26T09:53:29.457Z,36.60
2018-07-26T09:55:58.543Z,37.40
2018-07-26T09:58:27.608Z,38.40
2018-07-26T10:01:02.063Z,35.10
2018-07-26T10:03:31.123Z,34.00
2018-07-26T10:06:00.187Z,35.20
2018-07-26T10:10:57.943Z,33.30
2018-07-26T10:15:55.722Z,32.20
2018-07-26T10:18:24.792Z,32.90
2018-07-26T10:20:53.844Z,32.10
2018-07-26T10:23:22.912Z,31.90
2018-07-26T10:25:51.991Z,31.90
2018-07-26T10:28:21.063Z,29.90
2018-07-26T10:30:50.102Z,29.40
2018-07-26T10:33:19.180Z,28.70
2018-07-26T10:35:48.240Z,27.10
2018-07-26T10:38:17.316Z,30.00
2018-07-26T10:43:15.119Z,31.50
2018-07-26T10:45:44.177Z,32.10
2018-07-26T10:48:13.251Z,30.80
2018-07-26T10:50:42.396Z,31.90
2018-07-26T10:55:40.192Z,34.20
2018-07-26T10:58:09.275Z,33.00
2018-07-26T11:03:07.196Z,31.70
2018-07-26T11:05:36.242Z,33.30
2018-07-26T11:08:05.339Z,33.10
2018-07-26T11:10:34.393Z,34.80
2018-07-26T11:13:03.473Z,34.20
2018-07-26T11:15:34.009Z,33.70
2018-07-26T11:18:03.416Z,32.20
2018-07-26T11:20:32.455Z,31.90
2018-07-26T11:23:01.520Z,30.00
2018-07-26T11:25:30.622Z,30.40
2018-07-26T11:27:59.673Z,32.00
2018-07-26T11:30:28.727Z,33.10
2018-07-26T11:32:57.796Z,31.20
2018-07-26T11:35:26.857Z,32.40
2018-07-26T11:40:24.632Z,32.50
2018-07-26T11:42:53.674Z,32.70
2018-07-26T11:45:29.131Z,33.10
2018-07-26T11:47:58.174Z,31.90
2018-07-26T11:52:55.935Z,30.60
2018-07-26T11:55:25.014Z,31.70
2018-07-26T11:57:54.142Z,30.10
2018-07-26T12:00:23.214Z,30.60
2018-07-26T12:02:52.269Z,29.60
2018-07-26T12:05:21.333Z,29.30
2018-07-26T12:12:48.712Z,28.70
2018-07-26T12:15:17.820Z,29.00
2018-07-26T12:22:44.236Z,29.80
2018-07-26T12:25:13.295Z,28.60
2018-07-26T12:32:39.707Z,28.80
2018-07-26T12:35:08.782Z,28.80
2018-07-26T12:37:37.825Z,27.90
2018-07-26T12:40:06.911Z,29.20
2018-07-26T12:42:35.963Z,30.40
2018-07-26T12:45:05.709Z,29.80
2018-07-26T12:47:34.797Z,28.20
2018-07-26T12:50:04.258Z,27.60
2018-07-26T12:55:02.000Z,25.90
2018-07-26T12:57:31.069Z,25.20
2018-07-26T13:00:00.112Z,24.50
2018-07-26T13:02:29.195Z,23.20
2018-07-26T13:04:58.236Z,23.10
2018-07-26T13:07:27.299Z,22.40
2018-07-26T13:09:56.338Z,22.30
2018-07-26T13:12:25.431Z,21.50
2018-07-26T13:14:54.564Z,21.70
2018-07-26T13:17:23.607Z,20.40
2018-07-26T13:22:21.368Z,19.70
2018-07-26T13:24:50.819Z,19.80
2018-07-26T13:27:20.020Z,19.10
2018-07-26T13:29:49.030Z,19.00
2018-07-26T13:32:18.096Z,19.80
2018-07-26T13:34:47.148Z,18.90
2018-07-26T13:39:45.110Z,19.20
2018-07-26T13:42:16.866Z,18.70
2018-07-26T13:44:46.059Z,19.10
2018-07-26T13:47:15.240Z,19.20
2018-07-26T13:49:44.321Z,18.40
2018-07-26T13:52:13.468Z,18.30
2018-07-26T13:54:42.604Z,17.80
2018-07-26T13:57:11.778Z,18.40
2018-07-26T13:59:40.832Z,17.90
2018-07-26T14:02:09.897Z,17.00
2018-07-26T14:04:38.981Z,17.10
2018-07-26T14:07:08.053Z,16.20
2018-07-26T14:09:37.132Z,16.30
2018-07-26T14:12:06.192Z,16.30
2018-07-26T14:17:03.972Z,17.30
2018-07-26T14:19:33.036Z,16.40
2018-07-26T14:22:02.089Z,16.10
2018-07-26T14:24:31.189Z,16.10
2018-07-26T14:27:00.243Z,15.60
2018-07-26T14:29:29.333Z,15.80
2018-07-26T14:31:58.391Z,16.50
2018-07-26T14:34:27.640Z,16.80
2018-07-26T14:36:56.835Z,16.50
2018-07-26T14:39:26.076Z,16.30
2018-07-26T14:41:55.211Z,16.40
2018-07-26T14:44:24.277Z,16.10
2018-07-26T14:46:53.328Z,16.40
2018-07-26T14:49:22.454Z,16.30
2018-07-26T14:51:51.522Z,16.00
2018-07-26T14:56:49.418Z,16.20
2018-07-26T14:59:18.544Z,16.20
2018-07-26T15:01:47.597Z,16.30
2018-07-26T15:04:16.664Z,15.90
2018-07-26T15:06:45.936Z,16.40
2018-07-26T15:09:15.004Z,16.40
2018-07-26T15:14:12.923Z,17.90
2018-07-26T15:16:41.999Z,17.70
2018-07-26T15:19:11.053Z,17.90
2018-07-26T15:21:40.116Z,17.90
2018-07-26T15:24:09.214Z,17.30
2018-07-26T15:26:38.297Z,17.00
2018-07-26T15:29:07.354Z,18.20
2018-07-26T15:34:05.123Z,19.10
2018-07-26T15:36:34.204Z,18.10
2018-07-26T15:39:03.636Z,17.50
2018-07-26T15:41:32.712Z,16.70
2018-07-26T15:44:01.793Z,17.20
2018-07-26T15:46:30.864Z,16.60
2018-07-26T15:48:59.947Z,16.60
2018-07-26T15:51:29.050Z,16.40
2018-07-26T15:53:58.089Z,15.80
2018-07-26T15:56:27.165Z,15.80
2018-07-26T15:58:56.220Z,15.30
2018-07-26T16:03:53.975Z,15.60
2018-07-26T16:06:23.092Z,16.00
2018-07-26T16:11:21.139Z,16.50
2018-07-26T16:13:50.220Z,15.70
2018-07-26T16:16:19.299Z,16.20
2018-07-26T16:18:48.341Z,16.70
2018-07-26T16:21:17.416Z,17.10
2018-07-26T16:23:46.540Z,18.00
2018-07-26T16:26:15.619Z,18.30
2018-07-26T16:28:44.753Z,18.40
2018-07-26T16:31:14.078Z,18.00
2018-07-26T16:33:43.131Z,17.70
2018-07-26T16:36:12.240Z,17.70
2018-07-26T16:38:41.312Z,17.50
2018-07-26T16:41:10.360Z,17.70
2018-07-26T16:43:39.433Z,18.70
2018-07-26T16:46:08.683Z,19.10
2018-07-26T16:48:37.740Z,18.40
2018-07-26T16:53:35.483Z,18.60
2018-07-26T16:56:04.536Z,19.00
2018-07-26T16:58:33.671Z,18.30
2018-07-26T17:01:02.689Z,18.90
2018-07-26T17:03:31.764Z,18.60
2018-07-26T17:06:01.033Z,18.90
2018-07-26T17:08:30.103Z,19.10
2018-07-26T17:10:59.192Z,18.60
2018-07-26T17:13:28.270Z,18.50
2018-07-26T17:15:57.348Z,18.30
2018-07-26T17:18:26.420Z,18.50
2018-07-26T17:20:55.475Z,18.50
2018-07-26T17:23:24.548Z,18.50
2018-07-26T17:25:53.600Z,18.60
2018-07-26T17:28:22.641Z,19.30
2018-07-26T17:30:51.857Z,19.20
2018-07-26T17:33:20.992Z,19.40
2018-07-26T17:35:50.070Z,20.00
2018-07-26T17:38:19.127Z,19.80
2018-07-26T17:40:48.196Z,19.20
2018-07-26T17:43:17.240Z,19.30
2018-07-26T17:45:46.304Z,19.50
2018-07-26T17:48:15.355Z,20.00
2018-07-26T17:50:44.425Z,20.00
2018-07-26T17:53:13.476Z,20.00
2018-07-26T17:55:42.553Z,20.50
2018-07-26T17:58:11.616Z,20.40
2018-07-26T18:00:40.682Z,20.70
2018-07-26T18:03:09.736Z,21.00
2018-07-26T18:05:38.812Z,20.90
2018-07-26T18:08:07.888Z,21.30
2018-07-26T18:10:36.962Z,21.10
2018-07-26T18:13:06.224Z,21.00
2018-07-26T18:15:35.304Z,21.90
2018-07-26T18:20:33.036Z,22.30
2018-07-26T18:23:02.105Z,22.90
2018-07-26T18:25:31.317Z,23.20
2018-07-26T18:32:57.748Z,25.00
2018-07-26T18:35:26.796Z,24.90
2018-07-26T18:37:55.931Z,25.10
2018-07-26T18:40:24.932Z,25.90
2018-07-26T18:42:54.002Z,27.00
2018-07-26T18:45:23.052Z,27.10
2018-07-26T18:47:52.108Z,28.40
2018-07-26T18:50:21.156Z,29.10
2018-07-26T18:52:50.370Z,30.20
2018-07-26T18:55:19.362Z,30.40
2018-07-26T18:57:48.420Z,31.90
2018-07-26T19:02:46.214Z,33.40
2018-07-26T19:05:15.266Z,34.10
2018-07-26T19:07:44.327Z,35.00
2018-07-26T19:10:13.373Z,35.60
2018-07-26T19:12:42.417Z,36.10
2018-07-26T19:15:12.471Z,36.90
2018-07-26T19:17:41.527Z,37.80
2018-07-26T19:20:11.496Z,38.00
2018-07-26T19:22:40.543Z,40.10
2018-07-26T19:25:10.798Z,39.80
2018-07-26T19:27:39.968Z,39.70
2018-07-26T19:30:11.763Z,40.60
2018-07-26T19:32:40.903Z,41.40
2018-07-26T19:35:10.255Z,40.50
2018-07-26T19:37:39.427Z,41.40
2018-07-26T19:40:09.764Z,41.00
2018-07-26T19:42:39.186Z,41.90
2018-07-26T19:47:38.716Z,42.80
2018-07-26T19:50:08.109Z,43.10
2018-07-26T19:52:37.671Z,43.20
2018-07-26T19:55:08.936Z,43.70
2018-07-26T19:57:37.988Z,43.70
2018-07-26T20:00:07.764Z,44.40
2018-07-26T20:02:37.691Z,44.90
2018-07-26T20:05:07.504Z,44.70
2018-07-26T20:07:36.552Z,44.90
2018-07-26T20:10:08.028Z,44.80
2018-07-26T20:12:37.096Z,46.30
2018-07-26T20:15:06.357Z,46.40
2018-07-26T20:17:35.463Z,46.60
2018-07-26T20:20:07.016Z,48.30
2018-07-26T20:22:36.142Z,48.10
2018-07-26T20:27:33.939Z,48.50
2018-07-26T20:30:03.204Z,48.40
2018-07-26T20:32:32.280Z,48.70
2018-07-26T20:35:01.472Z,48.60
2018-07-26T20:37:30.512Z,48.40
2018-07-26T20:39:59.576Z,49.10
2018-07-26T20:42:28.626Z,49.90
2018-07-26T20:44:57.688Z,50.30
2018-07-26T20:47:26.733Z,50.10
2018-07-26T20:49:55.857Z,50.90
2018-07-26T20:52:24.988Z,51.30
2018-07-26T20:54:54.092Z,51.20
2018-07-26T20:59:51.844Z,51.60
2018-07-26T21:02:20.974Z,51.10
2018-07-26T21:04:49.988Z,51.80
2018-07-26T21:07:19.081Z,52.20
2018-07-26T21:09:48.120Z,52.50
2018-07-26T21:12:17.183Z,52.40
2018-07-26T21:14:46.241Z,53.80
2018-07-26T21:17:15.291Z,54.00
2018-07-26T21:19:44.355Z,53.80
2018-07-26T21:22:13.416Z,54.20
2018-07-26T21:24:42.468Z,54.40
2018-07-26T21:27:11.580Z,55.70
2018-07-26T21:29:40.644Z,54.50
2018-07-26T21:32:09.746Z,56.60
2018-07-26T21:34:38.787Z,55.50
2018-07-26T21:37:07.864Z,55.80
2018-07-26T21:39:36.903Z,55.60
2018-07-26T21:42:06.252Z,57.30
2018-07-26T21:44:35.335Z,56.70
2018-07-26T21:49:33.108Z,58.20
2018-07-26T21:52:02.177Z,59.00
2018-07-26T21:56:59.912Z,59.20
2018-07-26T21:59:28.952Z,57.90
2018-07-26T22:01:58.020Z,57.90
2018-07-26T22:04:27.073Z,59.60
2018-07-26T22:06:56.132Z,59.80
2018-07-26T22:09:25.176Z,60.70
2018-07-26T22:11:54.241Z,60.70
2018-07-26T22:14:23.304Z,60.80
2018-07-26T22:16:52.364Z,60.90
2018-07-26T22:19:21.399Z,61.80
2018-07-26T22:21:50.463Z,63.70
2018-07-26T22:24:19.496Z,63.10
2018-07-26T22:26:48.563Z,63.30
2018-07-26T22:29:17.599Z,63.80
2018-07-26T22:31:46.636Z,64.20
2018-07-26T22:34:15.692Z,64.80
2018-07-26T22:36:44.736Z,65.70
2018-07-26T22:39:13.794Z,67.30
2018-07-26T22:44:11.672Z,67.30
2018-07-26T22:46:40.711Z,67.60
2018-07-26T22:49:09.771Z,68.50
2018-07-26T22:56:36.187Z,67.30
2018-07-26T22:59:05.306Z,67.60
2018-07-26T23:01:34.345Z,69.20
2018-07-26T23:04:03.396Z,68.30
2018-07-26T23:06:32.444Z,68.10
2018-07-26T23:09:01.500Z,67.90
2018-07-26T23:11:30.543Z,68.50
2018-07-26T23:13:59.600Z,68.70
2018-07-26T23:16:28.712Z,68.30
2018-07-26T23:21:26.432Z,68.30
2018-07-26T23:23:55.487Z,69.20
2018-07-26T23:28:53.219Z,69.10
2018-07-26T23:31:22.268Z,69.40
2018-07-26T23:33:51.340Z,70.10
2018-07-26T23:36:20.388Z,71.60
2018-07-26T23:38:49.448Z,70.40
2018-07-26T23:43:47.216Z,70.50
2018-07-26T23:46:16.260Z,70.30
2018-07-26T23:48:45.324Z,70.70
2018-07-26T23:53:43.219Z,70.10
2018-07-26T23:56:12.264Z,70.30
2018-07-26T23:58:41.333Z,72.20
